sensor_id;sensor_type;location;lat;lon;timestamp;P1;P2;P0
67892;PMS7003;54688;52.376;16.744;2023-07-22T00:01:29;4;3;
67892;PMS7003;54688;52.376;16.744;2023-07-22T00:04:31;5;4;
67892;PMS7003;54688;52.376;16.744;2023-07-22T00:07:33;5;4;
67892;PMS7003;54688;52.376;16.744;2023-07-22T00:10:34;5;4;
67892;PMS7003;54688;52.376;16.744;2023-07-22T00:13:36;5;4;
67892;PMS7003;54688;52.376;16.744;2023-07-22T00:16:38;7;4;
67892;PMS7003;54688;52.376;16.744;2023-07-22T00:19:40;4;3;
67892;PMS7003;54688;52.376;16.744;2023-07-22T00:22:42;7;5;
67892;PMS7003;54688;52.376;16.744;2023-07-22T00:25:45;6;5;
67892;PMS7003;54688;52.376;16.744;2023-07-22T00:28:47;8;5;
67892;PMS7003;54688;52.376;16.744;2023-07-22T00:31:49;5;5;
67892;PMS7003;54688;52.376;16.744;2023-07-22T00:34:50;6;3;
67892;PMS7003;54688;52.376;16.744;2023-07-22T00:37:52;6;5;
67892;PMS7003;54688;52.376;16.744;2023-07-22T00:40:54;6;6;
67892;PMS7003;54688;52.376;16.744;2023-07-22T00:43:56;7;6;
67892;PMS7003;54688;52.376;16.744;2023-07-22T00:46:58;4;4;
67892;PMS7003;54688;52.376;16.744;2023-07-22T00:50:01;3;3;
67892;PMS7003;54688;52.376;16.744;2023-07-22T00:53:04;5;5;
67892;PMS7003;54688;52.376;16.744;2023-07-22T00:56:06;7;6;
67892;PMS7003;54688;52.376;16.744;2023-07-22T00:59:08;6;5;
67892;PMS7003;54688;52.376;16.744;2023-07-22T01:02:11;6;5;
67892;PMS7003;54688;52.376;16.744;2023-07-22T01:05:12;7;6;
67892;PMS7003;54688;52.376;16.744;2023-07-22T01:08:14;4;4;
67892;PMS7003;54688;52.376;16.744;2023-07-22T01:11:16;6;5;
67892;PMS7003;54688;52.376;16.744;2023-07-22T01:14:18;5;5;
67892;PMS7003;54688;52.376;16.744;2023-07-22T01:17:19;7;6;
67892;PMS7003;54688;52.376;16.744;2023-07-22T01:20:22;6;5;
67892;PMS7003;54688;52.376;16.744;2023-07-22T01:23:25;7;6;
67892;PMS7003;54688;52.376;16.744;2023-07-22T01:26:26;5;5;
67892;PMS7003;54688;52.376;16.744;2023-07-22T01:29:28;6;4;
67892;PMS7003;54688;52.376;16.744;2023-07-22T01:32:31;7;7;
67892;PMS7003;54688;52.376;16.744;2023-07-22T01:35:32;6;6;
67892;PMS7003;54688;52.376;16.744;2023-07-22T01:38:34;6;6;
67892;PMS7003;54688;52.376;16.744;2023-07-22T01:41:36;7;6;
67892;PMS7003;54688;52.376;16.744;2023-07-22T01:44:40;5;5;
67892;PMS7003;54688;52.376;16.744;2023-07-22T01:47:41;9;7;
67892;PMS7003;54688;52.376;16.744;2023-07-22T01:50:43;7;7;
67892;PMS7003;54688;52.376;16.744;2023-07-22T01:53:46;7;7;
67892;PMS7003;54688;52.376;16.744;2023-07-22T01:56:47;8;7;
67892;PMS7003;54688;52.376;16.744;2023-07-22T01:59:50;6;6;
67892;PMS7003;54688;52.376;16.744;2023-07-22T02:02:52;7;6;
67892;PMS7003;54688;52.376;16.744;2023-07-22T02:06:01;10;7;
67892;PMS7003;54688;52.376;16.744;2023-07-22T02:09:03;9;7;
67892;PMS7003;54688;52.376;16.744;2023-07-22T02:12:06;7;6;
67892;PMS7003;54688;52.376;16.744;2023-07-22T02:15:09;8;7;
67892;PMS7003;54688;52.376;16.744;2023-07-22T02:18:12;9;8;
67892;PMS7003;54688;52.376;16.744;2023-07-22T02:21:13;7;7;
67892;PMS7003;54688;52.376;16.744;2023-07-22T02:24:15;9;8;
67892;PMS7003;54688;52.376;16.744;2023-07-22T02:27:18;8;8;
67892;PMS7003;54688;52.376;16.744;2023-07-22T02:30:19;7;7;
67892;PMS7003;54688;52.376;16.744;2023-07-22T02:33:22;9;9;
67892;PMS7003;54688;52.376;16.744;2023-07-22T02:36:24;10;8;
67892;PMS7003;54688;52.376;16.744;2023-07-22T02:39:27;8;8;
67892;PMS7003;54688;52.376;16.744;2023-07-22T02:42:28;7;7;
67892;PMS7003;54688;52.376;16.744;2023-07-22T02:45:30;10;10;
67892;PMS7003;54688;52.376;16.744;2023-07-22T02:48:32;6;6;
67892;PMS7003;54688;52.376;16.744;2023-07-22T02:51:34;14;11;
67892;PMS7003;54688;52.376;16.744;2023-07-22T02:54:39;11;7;
67892;PMS7003;54688;52.376;16.744;2023-07-22T02:57:41;8;8;
67892;PMS7003;54688;52.376;16.744;2023-07-22T03:00:43;8;8;
67892;PMS7003;54688;52.376;16.744;2023-07-22T03:03:45;7;7;
67892;PMS7003;54688;52.376;16.744;2023-07-22T03:06:46;13;8;
67892;PMS7003;54688;52.376;16.744;2023-07-22T03:09:48;7;7;
67892;PMS7003;54688;52.376;16.744;2023-07-22T03:12:50;12;11;
67892;PMS7003;54688;52.376;16.744;2023-07-22T03:15:52;8;8;
67892;PMS7003;54688;52.376;16.744;2023-07-22T03:18:54;10;8;
67892;PMS7003;54688;52.376;16.744;2023-07-22T03:21:56;12;11;
67892;PMS7003;54688;52.376;16.744;2023-07-22T03:24:58;7;7;
67892;PMS7003;54688;52.376;16.744;2023-07-22T03:28:02;9;9;
67892;PMS7003;54688;52.376;16.744;2023-07-22T03:31:04;12;8;
67892;PMS7003;54688;52.376;16.744;2023-07-22T03:34:06;9;9;
67892;PMS7003;54688;52.376;16.744;2023-07-22T03:37:08;8;8;
67892;PMS7003;54688;52.376;16.744;2023-07-22T03:40:11;10;9;
67892;PMS7003;54688;52.376;16.744;2023-07-22T03:43:13;10;9;
67892;PMS7003;54688;52.376;16.744;2023-07-22T03:46:15;14;14;
67892;PMS7003;54688;52.376;16.744;2023-07-22T03:49:18;10;8;
67892;PMS7003;54688;52.376;16.744;2023-07-22T03:52:20;13;11;
67892;PMS7003;54688;52.376;16.744;2023-07-22T03:55:22;12;12;
67892;PMS7003;54688;52.376;16.744;2023-07-22T03:58:23;11;11;
67892;PMS7003;54688;52.376;16.744;2023-07-22T04:01:26;20;19;
67892;PMS7003;54688;52.376;16.744;2023-07-22T04:04:28;14;14;
67892;PMS7003;54688;52.376;16.744;2023-07-22T04:07:30;14;12;
67892;PMS7003;54688;52.376;16.744;2023-07-22T04:10:33;17;14;
67892;PMS7003;54688;52.376;16.744;2023-07-22T04:13:35;17;13;
67892;PMS7003;54688;52.376;16.744;2023-07-22T04:16:37;15;14;
67892;PMS7003;54688;52.376;16.744;2023-07-22T04:19:39;17;16;
67892;PMS7003;54688;52.376;16.744;2023-07-22T04:22:41;18;14;
67892;PMS7003;54688;52.376;16.744;2023-07-22T04:25:44;17;16;
67892;PMS7003;54688;52.376;16.744;2023-07-22T04:28:46;19;18;
67892;PMS7003;54688;52.376;16.744;2023-07-22T04:31:48;16;14;
67892;PMS7003;54688;52.376;16.744;2023-07-22T04:34:50;17;17;
67892;PMS7003;54688;52.376;16.744;2023-07-22T04:37:52;18;18;
67892;PMS7003;54688;52.376;16.744;2023-07-22T04:40:54;18;16;
67892;PMS7003;54688;52.376;16.744;2023-07-22T04:43:56;15;15;
67892;PMS7003;54688;52.376;16.744;2023-07-22T04:46:58;17;17;
67892;PMS7003;54688;52.376;16.744;2023-07-22T04:50:01;19;18;
67892;PMS7003;54688;52.376;16.744;2023-07-22T04:53:03;21;19;
67892;PMS7003;54688;52.376;16.744;2023-07-22T04:56:05;19;17;
67892;PMS7003;54688;52.376;16.744;2023-07-22T04:59:08;14;14;
67892;PMS7003;54688;52.376;16.744;2023-07-22T05:02:11;18;17;
67892;PMS7003;54688;52.376;16.744;2023-07-22T05:05:14;20;16;
67892;PMS7003;54688;52.376;16.744;2023-07-22T05:08:17;14;14;
67892;PMS7003;54688;52.376;16.744;2023-07-22T05:11:19;16;12;
67892;PMS7003;54688;52.376;16.744;2023-07-22T05:14:21;12;12;
67892;PMS7003;54688;52.376;16.744;2023-07-22T05:17:24;15;12;
67892;PMS7003;54688;52.376;16.744;2023-07-22T05:20:26;18;14;
67892;PMS7003;54688;52.376;16.744;2023-07-22T05:23:27;14;13;
67892;PMS7003;54688;52.376;16.744;2023-07-22T05:26:29;16;15;
67892;PMS7003;54688;52.376;16.744;2023-07-22T05:29:31;13;12;
67892;PMS7003;54688;52.376;16.744;2023-07-22T05:32:33;14;13;
67892;PMS7003;54688;52.376;16.744;2023-07-22T05:35:35;13;13;
67892;PMS7003;54688;52.376;16.744;2023-07-22T05:38:37;16;14;
67892;PMS7003;54688;52.376;16.744;2023-07-22T05:41:39;16;11;
67892;PMS7003;54688;52.376;16.744;2023-07-22T05:44:42;13;13;
67892;PMS7003;54688;52.376;16.744;2023-07-22T05:47:44;15;11;
67892;PMS7003;54688;52.376;16.744;2023-07-22T05:50:47;15;12;
67892;PMS7003;54688;52.376;16.744;2023-07-22T05:53:49;9;9;
67892;PMS7003;54688;52.376;16.744;2023-07-22T05:56:52;11;10;
67892;PMS7003;54688;52.376;16.744;2023-07-22T05:59:54;12;10;
67892;PMS7003;54688;52.376;16.744;2023-07-22T06:02:56;11;10;
67892;PMS7003;54688;52.376;16.744;2023-07-22T06:05:58;12;11;
67892;PMS7003;54688;52.376;16.744;2023-07-22T06:09:00;11;9;
67892;PMS7003;54688;52.376;16.744;2023-07-22T06:12:03;11;10;
67892;PMS7003;54688;52.376;16.744;2023-07-22T06:15:06;12;12;
67892;PMS7003;54688;52.376;16.744;2023-07-22T06:18:09;13;11;
67892;PMS7003;54688;52.376;16.744;2023-07-22T06:21:10;13;13;
67892;PMS7003;54688;52.376;16.744;2023-07-22T06:24:12;16;14;
67892;PMS7003;54688;52.376;16.744;2023-07-22T06:27:14;14;11;
67892;PMS7003;54688;52.376;16.744;2023-07-22T06:30:16;14;14;
67892;PMS7003;54688;52.376;16.744;2023-07-22T06:33:19;20;17;
67892;PMS7003;54688;52.376;16.744;2023-07-22T06:36:21;11;11;
67892;PMS7003;54688;52.376;16.744;2023-07-22T06:39:23;14;14;
67892;PMS7003;54688;52.376;16.744;2023-07-22T06:42:25;19;16;
67892;PMS7003;54688;52.376;16.744;2023-07-22T06:45:28;13;12;
67892;PMS7003;54688;52.376;16.744;2023-07-22T06:48:30;15;11;
67892;PMS7003;54688;52.376;16.744;2023-07-22T06:51:32;13;13;
67892;PMS7003;54688;52.376;16.744;2023-07-22T06:54:34;14;9;
67892;PMS7003;54688;52.376;16.744;2023-07-22T06:57:37;12;12;
67892;PMS7003;54688;52.376;16.744;2023-07-22T07:00:39;13;12;
67892;PMS7003;54688;52.376;16.744;2023-07-22T07:03:41;10;10;
67892;PMS7003;54688;52.376;16.744;2023-07-22T07:06:43;11;9;
67892;PMS7003;54688;52.376;16.744;2023-07-22T07:09:46;10;10;
67892;PMS7003;54688;52.376;16.744;2023-07-22T07:12:48;13;11;
67892;PMS7003;54688;52.376;16.744;2023-07-22T07:15:50;12;10;
67892;PMS7003;54688;52.376;16.744;2023-07-22T07:18:53;10;10;
67892;PMS7003;54688;52.376;16.744;2023-07-22T07:21:55;11;11;
67892;PMS7003;54688;52.376;16.744;2023-07-22T07:24:58;9;9;
67892;PMS7003;54688;52.376;16.744;2023-07-22T07:28:00;7;7;
67892;PMS7003;54688;52.376;16.744;2023-07-22T07:31:03;8;8;
67892;PMS7003;54688;52.376;16.744;2023-07-22T07:34:05;10;9;
67892;PMS7003;54688;52.376;16.744;2023-07-22T07:37:08;9;8;
67892;PMS7003;54688;52.376;16.744;2023-07-22T07:40:12;12;10;
67892;PMS7003;54688;52.376;16.744;2023-07-22T07:43:14;9;9;
67892;PMS7003;54688;52.376;16.744;2023-07-22T07:46:18;11;8;
67892;PMS7003;54688;52.376;16.744;2023-07-22T07:49:19;8;7;
67892;PMS7003;54688;52.376;16.744;2023-07-22T07:52:21;11;7;
67892;PMS7003;54688;52.376;16.744;2023-07-22T07:55:24;6;6;
67892;PMS7003;54688;52.376;16.744;2023-07-22T07:58:25;9;9;
67892;PMS7003;54688;52.376;16.744;2023-07-22T08:01:28;6;6;
67892;PMS7003;54688;52.376;16.744;2023-07-22T08:04:30;10;7;
67892;PMS7003;54688;52.376;16.744;2023-07-22T08:07:33;6;6;
67892;PMS7003;54688;52.376;16.744;2023-07-22T08:10:35;6;6;
67892;PMS7003;54688;52.376;16.744;2023-07-22T08:13:38;5;5;
67892;PMS7003;54688;52.376;16.744;2023-07-22T08:16:39;7;7;
67892;PMS7003;54688;52.376;16.744;2023-07-22T08:19:41;5;5;
67892;PMS7003;54688;52.376;16.744;2023-07-22T08:22:44;7;7;
67892;PMS7003;54688;52.376;16.744;2023-07-22T08:25:46;6;6;
67892;PMS7003;54688;52.376;16.744;2023-07-22T08:28:48;9;5;
67892;PMS7003;54688;52.376;16.744;2023-07-22T08:31:51;8;7;
67892;PMS7003;54688;52.376;16.744;2023-07-22T08:34:53;7;7;
67892;PMS7003;54688;52.376;16.744;2023-07-22T08:37:56;6;6;
67892;PMS7003;54688;52.376;16.744;2023-07-22T08:40:58;7;5;
67892;PMS7003;54688;52.376;16.744;2023-07-22T08:44:00;7;7;
67892;PMS7003;54688;52.376;16.744;2023-07-22T08:47:02;6;5;
67892;PMS7003;54688;52.376;16.744;2023-07-22T08:50:06;4;4;
67892;PMS7003;54688;52.376;16.744;2023-07-22T08:53:10;6;6;
67892;PMS7003;54688;52.376;16.744;2023-07-22T08:56:14;5;5;
67892;PMS7003;54688;52.376;16.744;2023-07-22T08:59:17;5;5;
67892;PMS7003;54688;52.376;16.744;2023-07-22T09:02:19;5;5;
67892;PMS7003;54688;52.376;16.744;2023-07-22T09:05:22;5;4;
67892;PMS7003;54688;52.376;16.744;2023-07-22T09:08:24;5;5;
67892;PMS7003;54688;52.376;16.744;2023-07-22T09:11:26;6;3;
67892;PMS7003;54688;52.376;16.744;2023-07-22T09:14:29;3;3;
67892;PMS7003;54688;52.376;16.744;2023-07-22T09:17:32;4;4;
67892;PMS7003;54688;52.376;16.744;2023-07-22T09:20:35;3;3;
67892;PMS7003;54688;52.376;16.744;2023-07-22T09:23:38;3;3;
67892;PMS7003;54688;52.376;16.744;2023-07-22T09:26:42;2;2;
67892;PMS7003;54688;52.376;16.744;2023-07-22T09:29:45;3;3;
67892;PMS7003;54688;52.376;16.744;2023-07-22T09:32:47;3;3;
67892;PMS7003;54688;52.376;16.744;2023-07-22T09:35:50;2;2;
67892;PMS7003;54688;52.376;16.744;2023-07-22T09:39:00;1;1;
67892;PMS7003;54688;52.376;16.744;2023-07-22T09:42:03;2;2;
67892;PMS7003;54688;52.376;16.744;2023-07-22T09:45:06;3;3;
67892;PMS7003;54688;52.376;16.744;2023-07-22T09:48:09;4;2;
67892;PMS7003;54688;52.376;16.744;2023-07-22T09:51:12;3;3;
67892;PMS7003;54688;52.376;16.744;2023-07-22T09:54:14;5;3;
67892;PMS7003;54688;52.376;16.744;2023-07-22T09:57:17;2;2;
67892;PMS7003;54688;52.376;16.744;2023-07-22T10:00:20;5;4;
67892;PMS7003;54688;52.376;16.744;2023-07-22T10:03:23;4;4;
67892;PMS7003;54688;52.376;16.744;2023-07-22T10:06:30;1;1;
67892;PMS7003;54688;52.376;16.744;2023-07-22T10:09:33;2;2;
67892;PMS7003;54688;52.376;16.744;2023-07-22T10:12:39;4;2;
67892;PMS7003;54688;52.376;16.744;2023-07-22T10:15:42;4;4;
67892;PMS7003;54688;52.376;16.744;2023-07-22T10:18:45;3;3;
67892;PMS7003;54688;52.376;16.744;2023-07-22T10:21:48;2;2;
67892;PMS7003;54688;52.376;16.744;2023-07-22T10:24:52;3;3;
67892;PMS7003;54688;52.376;16.744;2023-07-22T10:27:55;3;3;
67892;PMS7003;54688;52.376;16.744;2023-07-22T10:30:58;1;1;
67892;PMS7003;54688;52.376;16.744;2023-07-22T10:34:01;2;2;
67892;PMS7003;54688;52.376;16.744;2023-07-22T10:37:03;4;3;
67892;PMS7003;54688;52.376;16.744;2023-07-22T10:40:26;3;3;
67892;PMS7003;54688;52.376;16.744;2023-07-22T10:43:30;4;4;
67892;PMS7003;54688;52.376;16.744;2023-07-22T10:46:34;4;3;
67892;PMS7003;54688;52.376;16.744;2023-07-22T10:49:46;3;3;
67892;PMS7003;54688;52.376;16.744;2023-07-22T10:52:50;4;4;
67892;PMS7003;54688;52.376;16.744;2023-07-22T10:56:23;7;5;
67892;PMS7003;54688;52.376;16.744;2023-07-22T10:59:26;7;7;
67892;PMS7003;54688;52.376;16.744;2023-07-22T11:02:29;5;3;
67892;PMS7003;54688;52.376;16.744;2023-07-22T11:05:47;5;5;
67892;PMS7003;54688;52.376;16.744;2023-07-22T11:08:49;4;4;
67892;PMS7003;54688;52.376;16.744;2023-07-22T11:11:53;4;4;
67892;PMS7003;54688;52.376;16.744;2023-07-22T11:15:03;3;3;
67892;PMS7003;54688;52.376;16.744;2023-07-22T11:18:06;2;2;
67892;PMS7003;54688;52.376;16.744;2023-07-22T11:21:09;3;3;
67892;PMS7003;54688;52.376;16.744;2023-07-22T11:24:12;3;3;
67892;PMS7003;54688;52.376;16.744;2023-07-22T11:27:15;3;3;
67892;PMS7003;54688;52.376;16.744;2023-07-22T11:30:17;6;6;
67892;PMS7003;54688;52.376;16.744;2023-07-22T11:33:19;5;4;
67892;PMS7003;54688;52.376;16.744;2023-07-22T11:36:22;4;3;
67892;PMS7003;54688;52.376;16.744;2023-07-22T11:39:25;4;4;
67892;PMS7003;54688;52.376;16.744;2023-07-22T11:42:28;5;2;
67892;PMS7003;54688;52.376;16.744;2023-07-22T11:45:30;4;4;
67892;PMS7003;54688;52.376;16.744;2023-07-22T11:48:32;4;2;
67892;PMS7003;54688;52.376;16.744;2023-07-22T11:51:35;4;4;
67892;PMS7003;54688;52.376;16.744;2023-07-22T11:54:39;3;3;
67892;PMS7003;54688;52.376;16.744;2023-07-22T11:57:42;5;4;
67892;PMS7003;54688;52.376;16.744;2023-07-22T12:00:44;2;2;
67892;PMS7003;54688;52.376;16.744;2023-07-22T12:03:46;1;1;
67892;PMS7003;54688;52.376;16.744;2023-07-22T12:06:49;4;4;
67892;PMS7003;54688;52.376;16.744;2023-07-22T12:09:53;2;2;
67892;PMS7003;54688;52.376;16.744;2023-07-22T12:13:00;4;4;
67892;PMS7003;54688;52.376;16.744;2023-07-22T12:16:04;3;3;
67892;PMS7003;54688;52.376;16.744;2023-07-22T12:19:09;3;3;
67892;PMS7003;54688;52.376;16.744;2023-07-22T12:22:11;2;2;
67892;PMS7003;54688;52.376;16.744;2023-07-22T12:25:13;8;3;
67892;PMS7003;54688;52.376;16.744;2023-07-22T12:28:15;4;3;
67892;PMS7003;54688;52.376;16.744;2023-07-22T12:31:17;4;4;
67892;PMS7003;54688;52.376;16.744;2023-07-22T12:34:19;4;4;
67892;PMS7003;54688;52.376;16.744;2023-07-22T12:37:21;3;3;
67892;PMS7003;54688;52.376;16.744;2023-07-22T12:40:24;2;2;
67892;PMS7003;54688;52.376;16.744;2023-07-22T12:43:26;4;4;
67892;PMS7003;54688;52.376;16.744;2023-07-22T12:46:29;4;4;
67892;PMS7003;54688;52.376;16.744;2023-07-22T12:49:31;4;3;
67892;PMS7003;54688;52.376;16.744;2023-07-22T12:52:33;2;2;
67892;PMS7003;54688;52.376;16.744;2023-07-22T12:55:36;1;1;
67892;PMS7003;54688;52.376;16.744;2023-07-22T12:58:38;6;3;
67892;PMS7003;54688;52.376;16.744;2023-07-22T13:01:40;6;3;
67892;PMS7003;54688;52.376;16.744;2023-07-22T13:04:43;2;2;
67892;PMS7003;54688;52.376;16.744;2023-07-22T13:07:45;3;3;
67892;PMS7003;54688;52.376;16.744;2023-07-22T13:10:48;1;1;
67892;PMS7003;54688;52.376;16.744;2023-07-22T13:13:50;2;2;
67892;PMS7003;54688;52.376;16.744;2023-07-22T13:16:52;2;2;
67892;PMS7003;54688;52.376;16.744;2023-07-22T13:19:54;1;1;
67892;PMS7003;54688;52.376;16.744;2023-07-22T13:22:56;3;3;
67892;PMS7003;54688;52.376;16.744;2023-07-22T13:25:58;4;2;
67892;PMS7003;54688;52.376;16.744;2023-07-22T13:29:01;4;2;
67892;PMS7003;54688;52.376;16.744;2023-07-22T13:32:04;2;2;
67892;PMS7003;54688;52.376;16.744;2023-07-22T13:35:07;4;1;
67892;PMS7003;54688;52.376;16.744;2023-07-22T13:38:09;5;3;
67892;PMS7003;54688;52.376;16.744;2023-07-22T13:41:11;1;1;
67892;PMS7003;54688;52.376;16.744;2023-07-22T13:44:14;2;2;
67892;PMS7003;54688;52.376;16.744;2023-07-22T13:47:16;3;2;
67892;PMS7003;54688;52.376;16.744;2023-07-22T13:50:18;2;2;
67892;PMS7003;54688;52.376;16.744;2023-07-22T13:53:21;2;2;
67892;PMS7003;54688;52.376;16.744;2023-07-22T13:56:24;4;3;
67892;PMS7003;54688;52.376;16.744;2023-07-22T13:59:25;2;2;
67892;PMS7003;54688;52.376;16.744;2023-07-22T14:02:28;3;2;
67892;PMS7003;54688;52.376;16.744;2023-07-22T14:05:31;1;1;
67892;PMS7003;54688;52.376;16.744;2023-07-22T14:08:33;2;2;
67892;PMS7003;54688;52.376;16.744;2023-07-22T14:11:35;2;1;
67892;PMS7003;54688;52.376;16.744;2023-07-22T14:14:38;2;2;
67892;PMS7003;54688;52.376;16.744;2023-07-22T14:17:40;2;2;
67892;PMS7003;54688;52.376;16.744;2023-07-22T14:20:43;3;2;
67892;PMS7003;54688;52.376;16.744;2023-07-22T14:23:45;3;3;
67892;PMS7003;54688;52.376;16.744;2023-07-22T14:26:47;1;1;
67892;PMS7003;54688;52.376;16.744;2023-07-22T14:29:49;3;3;
67892;PMS7003;54688;52.376;16.744;2023-07-22T14:32:52;4;1;
67892;PMS7003;54688;52.376;16.744;2023-07-22T14:35:54;3;2;
67892;PMS7003;54688;52.376;16.744;2023-07-22T14:38:57;2;2;
67892;PMS7003;54688;52.376;16.744;2023-07-22T14:41:59;0;0;
67892;PMS7003;54688;52.376;16.744;2023-07-22T14:45:02;2;1;
67892;PMS7003;54688;52.376;16.744;2023-07-22T14:48:05;2;2;
67892;PMS7003;54688;52.376;16.744;2023-07-22T14:54:06;2;1;
67892;PMS7003;54688;52.376;16.744;2023-07-22T14:57:09;2;2;
67892;PMS7003;54688;52.376;16.744;2023-07-22T15:00:12;1;1;
67892;PMS7003;54688;52.376;16.744;2023-07-22T15:03:14;1;1;
67892;PMS7003;54688;52.376;16.744;2023-07-22T15:06:16;4;2;
67892;PMS7003;54688;52.376;16.744;2023-07-22T15:09:19;4;2;
67892;PMS7003;54688;52.376;16.744;2023-07-22T15:12:21;2;2;
67892;PMS7003;54688;52.376;16.744;2023-07-22T15:15:24;3;3;
67892;PMS7003;54688;52.376;16.744;2023-07-22T15:18:26;2;2;
67892;PMS7003;54688;52.376;16.744;2023-07-22T15:21:28;1;1;
67892;PMS7003;54688;52.376;16.744;2023-07-22T15:24:30;3;2;
67892;PMS7003;54688;52.376;16.744;2023-07-22T15:27:32;0;0;
67892;PMS7003;54688;52.376;16.744;2023-07-22T15:30:35;2;2;
67892;PMS7003;54688;52.376;16.744;2023-07-22T15:33:37;0;0;
67892;PMS7003;54688;52.376;16.744;2023-07-22T15:36:40;4;2;
67892;PMS7003;54688;52.376;16.744;2023-07-22T15:39:42;1;1;
67892;PMS7003;54688;52.376;16.744;2023-07-22T15:42:45;1;1;
67892;PMS7003;54688;52.376;16.744;2023-07-22T15:45:47;2;2;
67892;PMS7003;54688;52.376;16.744;2023-07-22T15:48:49;1;1;
67892;PMS7003;54688;52.376;16.744;2023-07-22T15:51:52;1;1;
67892;PMS7003;54688;52.376;16.744;2023-07-22T15:54:54;2;1;
67892;PMS7003;54688;52.376;16.744;2023-07-22T15:57:56;2;1;
67892;PMS7003;54688;52.376;16.744;2023-07-22T16:00:59;4;2;
67892;PMS7003;54688;52.376;16.744;2023-07-22T16:04:01;1;1;
67892;PMS7003;54688;52.376;16.744;2023-07-22T16:07:03;2;2;
67892;PMS7003;54688;52.376;16.744;2023-07-22T16:13:06;2;2;
67892;PMS7003;54688;52.376;16.744;2023-07-22T16:16:08;6;2;
67892;PMS7003;54688;52.376;16.744;2023-07-22T16:19:10;4;2;
67892;PMS7003;54688;52.376;16.744;2023-07-22T16:22:12;3;1;
67892;PMS7003;54688;52.376;16.744;2023-07-22T16:25:15;2;2;
67892;PMS7003;54688;52.376;16.744;2023-07-22T16:28:17;1;1;
67892;PMS7003;54688;52.376;16.744;2023-07-22T16:31:20;1;1;
67892;PMS7003;54688;52.376;16.744;2023-07-22T16:34:21;1;1;
67892;PMS7003;54688;52.376;16.744;2023-07-22T16:37:24;2;2;
67892;PMS7003;54688;52.376;16.744;2023-07-22T16:40:26;1;1;
67892;PMS7003;54688;52.376;16.744;2023-07-22T16:43:28;3;2;
67892;PMS7003;54688;52.376;16.744;2023-07-22T16:46:31;4;2;
67892;PMS7003;54688;52.376;16.744;2023-07-22T16:49:32;2;2;
67892;PMS7003;54688;52.376;16.744;2023-07-22T16:52:34;2;2;
67892;PMS7003;54688;52.376;16.744;2023-07-22T16:58:35;2;2;
67892;PMS7003;54688;52.376;16.744;2023-07-22T17:01:38;3;3;
67892;PMS7003;54688;52.376;16.744;2023-07-22T17:04:40;2;2;
67892;PMS7003;54688;52.376;16.744;2023-07-22T17:07:43;2;2;
67892;PMS7003;54688;52.376;16.744;2023-07-22T17:10:45;2;2;
67892;PMS7003;54688;52.376;16.744;2023-07-22T17:13:47;2;2;
67892;PMS7003;54688;52.376;16.744;2023-07-22T17:16:49;2;2;
67892;PMS7003;54688;52.376;16.744;2023-07-22T17:19:53;3;1;
67892;PMS7003;54688;52.376;16.744;2023-07-22T17:22:55;2;2;
67892;PMS7003;54688;52.376;16.744;2023-07-22T17:25:57;4;4;
67892;PMS7003;54688;52.376;16.744;2023-07-22T17:28:59;4;4;
67892;PMS7003;54688;52.376;16.744;2023-07-22T17:32:02;5;3;
67892;PMS7003;54688;52.376;16.744;2023-07-22T17:35:05;5;4;
67892;PMS7003;54688;52.376;16.744;2023-07-22T17:38:09;3;3;
67892;PMS7003;54688;52.376;16.744;2023-07-22T17:41:11;1;1;
67892;PMS7003;54688;52.376;16.744;2023-07-22T17:44:13;4;4;
67892;PMS7003;54688;52.376;16.744;2023-07-22T17:47:15;2;2;
67892;PMS7003;54688;52.376;16.744;2023-07-22T17:50:17;2;2;
67892;PMS7003;54688;52.376;16.744;2023-07-22T17:53:19;4;3;
67892;PMS7003;54688;52.376;16.744;2023-07-22T17:56:21;3;2;
67892;PMS7003;54688;52.376;16.744;2023-07-22T17:59:23;2;2;
67892;PMS7003;54688;52.376;16.744;2023-07-22T18:02:26;3;3;
67892;PMS7003;54688;52.376;16.744;2023-07-22T18:05:28;4;4;
67892;PMS7003;54688;52.376;16.744;2023-07-22T18:08:31;4;2;
67892;PMS7003;54688;52.376;16.744;2023-07-22T18:11:33;2;2;
67892;PMS7003;54688;52.376;16.744;2023-07-22T18:14:36;3;3;
67892;PMS7003;54688;52.376;16.744;2023-07-22T18:17:39;4;3;
67892;PMS7003;54688;52.376;16.744;2023-07-22T18:20:42;4;4;
67892;PMS7003;54688;52.376;16.744;2023-07-22T18:23:44;4;3;
67892;PMS7003;54688;52.376;16.744;2023-07-22T18:26:46;5;5;
67892;PMS7003;54688;52.376;16.744;2023-07-22T18:29:49;7;6;
67892;PMS7003;54688;52.376;16.744;2023-07-22T18:32:51;4;3;
67892;PMS7003;54688;52.376;16.744;2023-07-22T18:35:53;4;4;
67892;PMS7003;54688;52.376;16.744;2023-07-22T18:38:55;3;3;
67892;PMS7003;54688;52.376;16.744;2023-07-22T18:41:57;5;5;
67892;PMS7003;54688;52.376;16.744;2023-07-22T18:45:00;4;4;
67892;PMS7003;54688;52.376;16.744;2023-07-22T18:48:03;4;3;
67892;PMS7003;54688;52.376;16.744;2023-07-22T18:51:05;5;4;
67892;PMS7003;54688;52.376;16.744;2023-07-22T18:54:07;6;6;
67892;PMS7003;54688;52.376;16.744;2023-07-22T18:57:10;4;4;
67892;PMS7003;54688;52.376;16.744;2023-07-22T19:00:12;10;4;
67892;PMS7003;54688;52.376;16.744;2023-07-22T19:06:13;9;4;
67892;PMS7003;54688;52.376;16.744;2023-07-22T19:12:15;6;3;
67892;PMS7003;54688;52.376;16.744;2023-07-22T19:15:17;4;4;
67892;PMS7003;54688;52.376;16.744;2023-07-22T19:18:20;5;4;
67892;PMS7003;54688;52.376;16.744;2023-07-22T19:21:22;4;3;
67892;PMS7003;54688;52.376;16.744;2023-07-22T19:24:24;7;6;
67892;PMS7003;54688;52.376;16.744;2023-07-22T19:33:24;4;4;
67892;PMS7003;54688;52.376;16.744;2023-07-22T19:36:26;4;4;
67892;PMS7003;54688;52.376;16.744;2023-07-22T19:39:28;7;5;
67892;PMS7003;54688;52.376;16.744;2023-07-22T19:42:29;6;5;
67892;PMS7003;54688;52.376;16.744;2023-07-22T19:45:32;8;6;
67892;PMS7003;54688;52.376;16.744;2023-07-22T19:48:35;6;6;
67892;PMS7003;54688;52.376;16.744;2023-07-22T19:51:37;6;4;
67892;PMS7003;54688;52.376;16.744;2023-07-22T19:54:39;6;5;
67892;PMS7003;54688;52.376;16.744;2023-07-22T19:57:42;5;5;
67892;PMS7003;54688;52.376;16.744;2023-07-22T20:00:45;9;6;
67892;PMS7003;54688;52.376;16.744;2023-07-22T20:03:49;13;12;
67892;PMS7003;54688;52.376;16.744;2023-07-22T20:06:51;9;9;
67892;PMS7003;54688;52.376;16.744;2023-07-22T20:09:53;10;9;
67892;PMS7003;54688;52.376;16.744;2023-07-22T20:12:56;11;7;
67892;PMS7003;54688;52.376;16.744;2023-07-22T20:15:57;10;7;
67892;PMS7003;54688;52.376;16.744;2023-07-22T20:19:00;12;10;
67892;PMS7003;54688;52.376;16.744;2023-07-22T20:22:03;15;12;
67892;PMS7003;54688;52.376;16.744;2023-07-22T20:28:03;11;9;
67892;PMS7003;54688;52.376;16.744;2023-07-22T20:31:05;13;11;
67892;PMS7003;54688;52.376;16.744;2023-07-22T20:34:07;12;9;
67892;PMS7003;54688;52.376;16.744;2023-07-22T20:37:09;18;15;
67892;PMS7003;54688;52.376;16.744;2023-07-22T20:40:12;10;9;
67892;PMS7003;54688;52.376;16.744;2023-07-22T20:43:15;9;8;
67892;PMS7003;54688;52.376;16.744;2023-07-22T20:46:17;11;8;